createdAt,value
2019-05-07T00:00:27.543Z,5.41
2019-05-07T00:01:28.797Z,5.4
2019-05-07T00:02:28.368Z,5.41
2019-05-07T00:03:27.771Z,5.37
2019-05-07T00:04:28.223Z,5.38
2019-05-07T00:05:28.388Z,5.41
2019-05-07T00:06:29.104Z,5.31
2019-05-07T00:07:29.517Z,5.41
2019-05-07T00:08:32.684Z,5.33
2019-05-07T00:09:32.887Z,5.31
2019-05-07T00:10:33.524Z,5.38
2019-05-07T00:11:33.687Z,5.36
2019-05-07T00:12:32.795Z,5.28
2019-05-07T00:13:33.686Z,5.38
2019-05-07T00:14:34.934Z,5.4
2019-05-07T00:17:37.789Z,5.4
2019-05-07T00:18:38.184Z,5.36
2019-05-07T00:19:38.292Z,5.33
2019-05-07T00:20:38.704Z,5.43
2019-05-07T00:21:38.811Z,5.41
2019-05-07T00:22:38.918Z,5.43
2019-05-07T00:23:39.579Z,5.41
2019-05-07T00:24:39.986Z,5.44
2019-05-07T00:25:42.645Z,5.47
2019-05-07T00:26:42.703Z,5.44
2019-05-07T00:27:42.897Z,5.47
2019-05-07T00:28:43.668Z,5.49
2019-05-07T00:29:43.208Z,5.54
2019-05-07T00:30:43.048Z,5.41
2019-05-07T00:31:42.472Z,5.49
2019-05-07T00:32:42.726Z,5.47
2019-05-07T00:33:44.001Z,5.52
2019-05-07T00:34:43.108Z,5.43
2019-05-07T00:35:44.109Z,5.46
2019-05-07T00:36:44.495Z,5.51
2019-05-07T00:37:44.889Z,5.43
2019-05-07T00:38:48.177Z,5.43
2019-05-07T00:39:47.912Z,5.38
2019-05-07T00:40:48.084Z,5.43
2019-05-07T00:41:48.578Z,5.38
2019-05-07T00:42:48.982Z,5.4
2019-05-07T00:43:49.095Z,5.37
2019-05-07T00:44:49.505Z,5.34
2019-05-07T00:45:49.638Z,5.37
2019-05-07T00:46:52.000Z,5.34
2019-05-07T00:47:52.659Z,5.33
2019-05-07T00:48:53.050Z,5.37
2019-05-07T00:49:52.587Z,5.31
2019-05-07T00:50:53.178Z,5.29
2019-05-07T00:51:53.288Z,5.29
2019-05-07T00:52:53.708Z,5.33
2019-05-07T00:53:54.106Z,5.4
2019-05-07T00:54:54.224Z,5.36
2019-05-07T00:55:55.212Z,5.28
2019-05-07T00:56:57.608Z,5.33
2019-05-07T00:57:58.414Z,5.29
2019-05-07T00:58:58.525Z,5.31
2019-05-07T00:59:58.372Z,5.31
2019-05-07T01:00:59.010Z,5.28
2019-05-07T01:01:59.121Z,5.28
2019-05-07T01:02:59.532Z,5.28
2019-05-07T01:03:59.654Z,5.34
2019-05-07T01:05:02.712Z,5.4
2019-05-07T01:06:02.369Z,5.29
2019-05-07T01:07:03.039Z,5.37
2019-05-07T01:08:02.906Z,5.36
2019-05-07T01:09:03.481Z,5.36
2019-05-07T01:10:03.159Z,5.31
2019-05-07T01:11:03.269Z,5.37
2019-05-07T01:12:03.949Z,5.4
2019-05-07T01:13:04.864Z,5.4
2019-05-07T01:14:04.734Z,5.37
2019-05-07T01:15:05.278Z,5.34
2019-05-07T01:16:08.271Z,5.37
2019-05-07T01:17:07.903Z,5.36
2019-05-07T01:18:08.679Z,5.36
2019-05-07T01:19:08.329Z,5.26
2019-05-07T01:20:09.023Z,5.25
2019-05-07T01:21:09.142Z,5.26
2019-05-07T01:22:09.256Z,5.28
2019-05-07T01:23:09.920Z,5.25
2019-05-07T01:24:12.901Z,5.22
2019-05-07T01:25:13.470Z,5.23
2019-05-07T01:26:13.059Z,5.22
2019-05-07T01:27:13.195Z,5.23
2019-05-07T01:28:13.906Z,5.25
2019-05-07T01:29:13.552Z,5.23
2019-05-07T01:30:14.251Z,5.22
2019-05-07T01:31:14.363Z,5.23
2019-05-07T01:32:14.476Z,5.2
2019-05-07T01:33:14.881Z,5.18
2019-05-07T01:34:17.554Z,5.22
2019-05-07T01:35:15.978Z,5.18
2019-05-07T01:36:18.673Z,5.29
2019-05-07T01:37:17.908Z,5.23
2019-05-07T01:38:17.820Z,5.18
2019-05-07T01:39:18.605Z,5.19
2019-05-07T01:40:18.993Z,5.16
2019-05-07T01:41:19.102Z,5.23
2019-05-07T01:42:19.214Z,5.22
2019-05-07T01:43:19.616Z,5.23
2019-05-07T01:44:22.331Z,5.23
2019-05-07T01:45:24.842Z,5.2
2019-05-07T01:46:24.924Z,5.2
2019-05-07T01:47:23.937Z,5.26
2019-05-07T01:48:23.332Z,5.2
2019-05-07T01:49:24.382Z,5.31
2019-05-07T01:50:23.496Z,5.22
2019-05-07T01:51:24.181Z,5.26
2019-05-07T01:52:24.290Z,5.2
2019-05-07T01:53:24.400Z,5.22
2019-05-07T01:54:24.807Z,5.18
2019-05-07T01:55:24.783Z,5.19
2019-05-07T01:56:25.193Z,5.13
2019-05-07T01:57:25.352Z,5.12
2019-05-07T01:58:27.648Z,5.08
2019-05-07T01:59:27.857Z,5.01
2019-05-07T02:00:28.267Z,5.01
2019-05-07T02:01:27.954Z,5.04
2019-05-07T02:02:28.457Z,5.08
2019-05-07T02:03:28.587Z,5.16
2019-05-07T02:04:27.933Z,5.08
2019-05-07T02:05:28.678Z,5.08
2019-05-07T02:06:29.393Z,5.05
2019-05-07T02:07:30.080Z,5.07
2019-05-07T02:08:32.770Z,5.12
2019-05-07T02:09:33.889Z,5.05
2019-05-07T02:10:32.471Z,5.02
2019-05-07T02:11:33.078Z,5.08
2019-05-07T02:12:33.196Z,5.07
2019-05-07T02:13:34.448Z,4.98
2019-05-07T02:14:33.964Z,5.04
2019-05-07T02:15:34.655Z,4.94
2019-05-07T02:16:35.099Z,4.95
2019-05-07T02:17:37.959Z,4.84
2019-05-07T02:18:38.124Z,4.87
2019-05-07T02:19:38.410Z,4.87
2019-05-07T02:20:37.847Z,4.82
2019-05-07T02:21:38.807Z,4.78
2019-05-07T02:22:39.206Z,4.78
2019-05-07T02:23:39.606Z,4.82
2019-05-07T02:24:40.331Z,4.79
2019-05-07T02:25:42.340Z,4.79
2019-05-07T02:26:43.045Z,4.71
2019-05-07T02:27:42.418Z,4.71
2019-05-07T02:28:42.971Z,4.75
2019-05-07T02:29:43.715Z,4.67
2019-05-07T02:30:44.834Z,4.66
2019-05-07T02:31:44.991Z,4.7
2019-05-07T02:32:44.320Z,4.71
2019-05-07T02:33:45.018Z,4.64
2019-05-07T02:34:45.232Z,4.63
2019-05-07T02:35:45.935Z,4.61
2019-05-07T02:36:49.140Z,4.63
2019-05-07T02:37:57.267Z,4.66
2019-05-07T02:38:52.791Z,4.56
2019-05-07T02:39:53.088Z,4.58
2019-05-07T02:40:49.100Z,4.53
2019-05-07T02:41:49.876Z,4.58
2019-05-07T02:42:49.925Z,4.57
2019-05-07T02:43:50.078Z,4.56
2019-05-07T02:44:53.274Z,4.57
2019-05-07T02:45:53.917Z,4.6
2019-05-07T02:46:53.258Z,4.53
2019-05-07T02:47:53.619Z,4.48
2019-05-07T02:48:54.632Z,4.42
2019-05-07T02:49:54.877Z,4.39
2019-05-07T02:50:59.826Z,4.28
2019-05-07T02:51:58.961Z,4.27
2019-05-07T02:52:59.275Z,4.27
2019-05-07T02:53:59.535Z,4.24
2019-05-07T02:55:03.482Z,4.21
2019-05-07T02:55:58.634Z,4.2
2019-05-07T02:56:59.064Z,4.16
2019-05-07T02:58:03.993Z,4.21
2019-05-07T02:59:03.753Z,4.12
2019-05-07T03:00:05.278Z,4.1
2019-05-07T03:01:05.530Z,4.14
2019-05-07T03:02:04.252Z,4.2
2019-05-07T03:03:05.005Z,4.12
2019-05-07T03:04:05.222Z,4.07
2019-05-07T03:05:05.996Z,4.03
2019-05-07T03:06:08.544Z,4.03
2019-05-07T03:07:12.913Z,4.03
2019-05-07T03:08:09.151Z,3.88
2019-05-07T03:09:09.125Z,3.89
2019-05-07T03:10:09.256Z,3.89
2019-05-07T03:11:09.224Z,3.78
2019-05-07T03:12:13.551Z,3.86
2019-05-07T03:13:13.416Z,3.81
2019-05-07T03:14:13.552Z,3.84
2019-05-07T03:15:13.836Z,3.86
2019-05-07T03:16:13.514Z,3.88
2019-05-07T03:17:13.667Z,3.78
2019-05-07T03:18:18.686Z,3.71
2019-05-07T03:19:13.873Z,3.78
2019-05-07T03:20:14.629Z,3.74
2019-05-07T03:21:14.160Z,3.71
2019-05-07T03:22:14.676Z,3.67
2019-05-07T03:23:14.385Z,3.82
2019-05-07T03:24:14.781Z,3.71
2019-05-07T03:25:15.790Z,3.74
2019-05-07T03:26:19.281Z,3.73
2019-05-07T03:27:23.045Z,3.78
2019-05-07T03:28:19.133Z,3.84
2019-05-07T03:29:18.836Z,3.86
2019-05-07T03:30:26.948Z,3.86
2019-05-07T03:31:26.979Z,3.86
2019-05-07T03:32:28.705Z,3.94
2019-05-07T03:33:27.275Z,3.84
2019-05-07T03:34:26.405Z,3.85
2019-05-07T03:35:28.196Z,3.85
2019-05-07T03:36:26.539Z,3.82
2019-05-07T03:37:23.799Z,3.71
2019-05-07T03:38:23.270Z,3.74
2019-05-07T03:39:24.695Z,3.67
2019-05-07T03:40:24.503Z,3.7
2019-05-07T03:41:28.434Z,3.7
2019-05-07T03:42:25.410Z,3.59
2019-05-07T03:43:28.682Z,3.63
2019-05-07T03:44:29.447Z,3.63
2019-05-07T03:45:28.913Z,3.61
2019-05-07T03:46:29.391Z,3.55
2019-05-07T03:47:32.868Z,3.52
2019-05-07T03:48:29.555Z,3.49
2019-05-07T03:49:29.528Z,3.53
2019-05-07T03:50:30.278Z,3.48
2019-05-07T03:51:33.441Z,3.53
2019-05-07T03:52:33.822Z,3.53
2019-05-07T03:53:34.580Z,3.64
2019-05-07T03:54:34.475Z,3.59
2019-05-07T03:55:33.896Z,3.5
2019-05-07T03:56:34.096Z,3.53
2019-05-07T03:57:34.121Z,3.52
2019-05-07T03:58:34.708Z,3.56
2019-05-07T03:59:35.113Z,3.52
2019-05-07T04:00:38.617Z,3.45
2019-05-07T04:01:39.236Z,3.5
2019-05-07T04:02:39.025Z,3.63
2019-05-07T04:03:39.805Z,3.49
2019-05-07T04:04:39.105Z,3.52
2019-05-07T04:05:43.014Z,3.49
2019-05-07T04:06:43.127Z,3.37
2019-05-07T04:07:43.671Z,3.43
2019-05-07T04:08:43.707Z,3.59
2019-05-07T04:09:44.193Z,3.48
2019-05-07T04:10:44.805Z,3.43
2019-05-07T04:11:43.968Z,3.46
2019-05-07T04:12:44.926Z,3.46
2019-05-07T04:13:44.778Z,3.45
2019-05-07T04:14:45.548Z,3.52
2019-05-07T04:15:49.323Z,3.43
2019-05-07T04:16:49.647Z,3.5
2019-05-07T04:17:48.843Z,3.49
2019-05-07T04:18:52.769Z,3.45
2019-05-07T04:19:49.674Z,3.45
2019-05-07T04:20:49.749Z,3.46
2019-05-07T04:21:53.095Z,3.5
2019-05-07T04:22:49.769Z,3.45
2019-05-07T04:23:50.475Z,3.49
2019-05-07T04:24:53.797Z,3.5
2019-05-07T04:25:53.383Z,3.5
2019-05-07T04:26:53.917Z,3.58
2019-05-07T04:27:53.066Z,3.48
2019-05-07T04:28:54.853Z,3.55
2019-05-07T04:29:54.513Z,3.58
2019-05-07T04:30:59.226Z,3.43
2019-05-07T04:31:59.439Z,3.55
2019-05-07T04:32:58.809Z,3.59
2019-05-07T04:33:59.432Z,3.56
2019-05-07T04:34:59.249Z,3.61
2019-05-07T04:35:59.292Z,3.56
2019-05-07T04:36:59.425Z,3.59
2019-05-07T04:38:07.228Z,3.59
2019-05-07T04:39:03.676Z,3.66
2019-05-07T04:40:03.873Z,3.64
2019-05-07T04:41:04.449Z,3.61
2019-05-07T04:42:04.165Z,3.61
2019-05-07T04:43:03.880Z,3.7
2019-05-07T04:44:04.586Z,3.7
2019-05-07T04:45:05.060Z,3.71
2019-05-07T04:46:08.877Z,3.74
2019-05-07T04:47:13.076Z,3.7
2019-05-07T04:48:08.628Z,3.77
2019-05-07T04:49:09.562Z,3.71
2019-05-07T04:50:09.358Z,3.82
2019-05-07T04:51:23.966Z,3.71
2019-05-07T04:52:24.659Z,3.85
2019-05-07T04:53:25.061Z,3.96
2019-05-07T04:54:29.042Z,3.92
2019-05-07T04:55:28.780Z,3.89
2019-05-07T04:56:29.427Z,3.95
2019-05-07T04:57:29.185Z,3.99
2019-05-07T04:58:34.551Z,4.06
2019-05-07T04:59:32.778Z,4.06
2019-05-07T05:00:33.331Z,4.12
2019-05-07T05:01:33.260Z,4.22
2019-05-07T05:02:33.128Z,4.14
2019-05-07T05:03:39.087Z,4.18
2019-05-07T05:04:39.458Z,4.32
2019-05-07T05:05:34.164Z,4.38
2019-05-07T05:06:34.882Z,4.4
2019-05-07T05:07:34.741Z,4.36
2019-05-07T05:08:38.220Z,4.45
2019-05-07T05:09:38.870Z,4.48
2019-05-07T05:10:39.362Z,4.52
2019-05-07T05:11:39.229Z,4.5
2019-05-07T05:12:38.487Z,4.46
2019-05-07T05:13:39.281Z,4.61
2019-05-07T05:14:40.027Z,4.63
2019-05-07T05:15:38.286Z,4.63
2019-05-07T05:16:38.774Z,4.66
2019-05-07T05:17:54.434Z,4.82
2019-05-07T05:18:41.843Z,4.75
2019-05-07T05:19:40.279Z,4.87
2019-05-07T05:20:42.725Z,4.7
2019-05-07T05:21:42.340Z,4.89
2019-05-07T05:22:42.825Z,4.83
2019-05-07T05:23:42.335Z,4.83
2019-05-07T05:24:43.295Z,4.87
2019-05-07T05:25:43.570Z,4.9
2019-05-07T05:26:43.980Z,4.98
2019-05-07T05:27:44.097Z,5.02
2019-05-07T05:28:44.814Z,4.98
2019-05-07T05:29:45.503Z,5.04
2019-05-07T05:30:47.971Z,5.02
2019-05-07T05:31:47.688Z,5.04
2019-05-07T05:32:47.944Z,5.12
2019-05-07T05:33:48.467Z,5.15
2019-05-07T05:34:48.595Z,5.22
2019-05-07T05:35:48.988Z,5.25
2019-05-07T05:36:49.375Z,5.36
2019-05-07T05:37:49.218Z,5.44
2019-05-07T05:38:49.330Z,5.47
2019-05-07T05:40:08.789Z,5.47
2019-05-07T05:40:52.425Z,5.55
2019-05-07T05:41:52.422Z,5.52
2019-05-07T05:42:52.751Z,5.54
2019-05-07T05:43:53.001Z,5.52
2019-05-07T05:44:53.073Z,5.73
2019-05-07T05:45:53.359Z,5.72
2019-05-07T05:46:53.794Z,5.73
2019-05-07T05:48:09.806Z,5.83
2019-05-07T05:48:54.536Z,5.91
2019-05-07T05:49:54.944Z,5.95
2019-05-07T05:50:55.496Z,5.92
2019-05-07T05:51:58.271Z,5.9
2019-05-07T05:52:57.511Z,6.02
2019-05-07T05:53:57.974Z,6.07
2019-05-07T05:54:58.377Z,6.17
2019-05-07T05:55:58.532Z,6.16
2019-05-07T05:56:58.948Z,6.2
2019-05-07T05:58:00.000Z,6.28
2019-05-07T05:59:03.041Z,6.22
2019-05-07T06:00:02.778Z,6.31
2019-05-07T06:01:03.295Z,6.39
2019-05-07T06:02:06.579Z,6.38
2019-05-07T06:03:02.875Z,6.35
2019-05-07T06:04:03.344Z,6.38
2019-05-07T06:05:05.768Z,6.46
2019-05-07T06:06:05.416Z,6.5
2019-05-07T06:07:16.919Z,6.62
2019-05-07T06:08:05.264Z,6.59
2019-05-07T06:09:07.418Z,6.74
2019-05-07T06:10:08.052Z,6.67
2019-05-07T06:11:08.317Z,6.72
2019-05-07T06:12:08.655Z,6.71
2019-05-07T06:13:09.343Z,6.74
2019-05-07T06:14:09.486Z,6.86
2019-05-07T06:15:09.986Z,6.87
2019-05-07T06:16:13.018Z,6.95
2019-05-07T06:17:13.255Z,6.96
2019-05-07T06:18:25.423Z,6.95
2019-05-07T06:19:14.466Z,7.05
2019-05-07T06:20:12.818Z,7.14
2019-05-07T06:21:13.444Z,7.15
2019-05-07T06:22:17.043Z,7.19
2019-05-07T06:23:14.038Z,7.26
2019-05-07T06:24:14.161Z,7.36
2019-05-07T06:25:15.515Z,7.37
2019-05-07T06:26:14.444Z,7.41
2019-05-07T06:27:14.570Z,7.39
2019-05-07T06:28:14.968Z,7.43
2019-05-07T06:29:22.965Z,7.53
2019-05-07T06:30:19.708Z,7.58
2019-05-07T06:31:18.470Z,7.69
2019-05-07T06:32:18.239Z,7.69
2019-05-07T06:33:18.004Z,7.74
2019-05-07T06:34:18.576Z,7.8
2019-05-07T06:35:19.787Z,7.9
2019-05-07T06:36:18.238Z,7.77
2019-05-07T06:37:18.648Z,7.83
2019-05-07T06:38:18.766Z,7.84
2019-05-07T06:39:19.173Z,7.84
2019-05-07T06:40:26.723Z,7.87
2019-05-07T06:41:23.142Z,7.83
2019-05-07T06:42:22.465Z,7.93
2019-05-07T06:43:22.170Z,7.93
2019-05-07T06:44:22.976Z,8.02
2019-05-07T06:45:23.394Z,7.98
2019-05-07T06:46:23.523Z,8.13
2019-05-07T06:47:23.936Z,8.08
2019-05-07T06:48:46.323Z,8.17
2019-05-07T06:49:24.499Z,8.13
2019-05-07T06:50:27.814Z,8.08
2019-05-07T06:51:28.154Z,8.05
2019-05-07T06:52:29.047Z,8.14
2019-05-07T06:53:28.134Z,8.23
2019-05-07T06:54:28.676Z,8.36
2019-05-07T06:55:28.711Z,8.41
2019-05-07T06:56:29.350Z,8.59
2019-05-07T06:57:29.858Z,8.63
2019-05-07T06:58:32.469Z,8.78
2019-05-07T06:59:35.081Z,8.93
2019-05-07T07:00:33.433Z,9.13
2019-05-07T07:01:33.129Z,9.69
2019-05-07T07:02:33.136Z,10.33
2019-05-07T07:03:33.391Z,11.22
2019-05-07T07:04:33.868Z,12.05
2019-05-07T07:05:33.685Z,12.84
2019-05-07T07:06:34.457Z,13.54
2019-05-07T07:07:42.350Z,14.2
2019-05-07T07:08:35.061Z,14.7
2019-05-07T07:09:38.876Z,15.04
2019-05-07T07:10:37.758Z,15.1
2019-05-07T07:11:37.993Z,15.3
2019-05-07T07:12:39.090Z,15.3
2019-05-07T07:13:39.323Z,15.65
2019-05-07T07:14:39.787Z,15.35
2019-05-07T07:15:42.911Z,15.32
2019-05-07T07:16:42.357Z,15.27
2019-05-07T07:17:42.553Z,15.19
2019-05-07T07:18:56.717Z,15.04
2019-05-07T07:19:43.375Z,15.07
2019-05-07T07:20:44.702Z,15.04
2019-05-07T07:21:44.848Z,15.12
2019-05-07T07:22:44.786Z,15.05
2019-05-07T07:23:44.991Z,15.19
2019-05-07T07:24:47.853Z,15.23
2019-05-07T07:25:48.782Z,15.14
2019-05-07T07:26:48.048Z,15.17
2019-05-07T07:27:48.463Z,14.92
2019-05-07T07:28:48.586Z,14.96
2019-05-07T07:29:52.912Z,14.99
2019-05-07T07:30:49.710Z,14.82
2019-05-07T07:31:53.241Z,14.68
2019-05-07T07:32:52.190Z,14.22
2019-05-07T07:33:53.169Z,13.83
2019-05-07T07:34:53.775Z,13.47
2019-05-07T07:35:54.195Z,13.26
2019-05-07T07:37:15.654Z,12.78
2019-05-07T07:37:55.856Z,12.45
2019-05-07T07:38:58.159Z,12.44
2019-05-07T07:39:58.199Z,12.55
2019-05-07T07:40:58.515Z,12.75
2019-05-07T07:41:57.783Z,12.83
2019-05-07T07:42:58.424Z,12.57
2019-05-07T07:43:58.752Z,12.63
2019-05-07T07:44:59.177Z,12.81
2019-05-07T07:46:02.693Z,12.8
2019-05-07T07:47:03.072Z,12.95
2019-05-07T07:48:03.539Z,12.98
2019-05-07T07:49:15.743Z,12.75
2019-05-07T07:50:02.610Z,12.54
2019-05-07T07:51:03.894Z,11.97
2019-05-07T07:52:04.395Z,12.05
2019-05-07T07:53:03.521Z,12.26
2019-05-07T07:54:03.923Z,12.54
2019-05-07T07:55:04.665Z,12.91
2019-05-07T07:56:05.540Z,13.23
2019-05-07T07:57:07.928Z,13.05
2019-05-07T07:58:08.359Z,13.3
2019-05-07T07:59:09.441Z,13.33
2019-05-07T08:00:12.677Z,13.37
2019-05-07T08:01:12.374Z,13.79
2019-05-07T08:02:09.509Z,14.01
2019-05-07T08:03:09.648Z,14.18
2019-05-07T08:04:12.599Z,14.38
2019-05-07T08:05:13.116Z,14.07
2019-05-07T08:06:12.612Z,14.16
2019-05-07T08:07:12.768Z,14.41
2019-05-07T08:08:13.129Z,14.41
2019-05-07T08:09:13.692Z,13.8
2019-05-07T08:10:15.642Z,13.73
2019-05-07T08:11:14.627Z,13.55
2019-05-07T08:12:15.238Z,13.71
2019-05-07T08:13:17.755Z,13.94
2019-05-07T08:14:18.188Z,14.22
2019-05-07T08:15:25.782Z,14.51
2019-05-07T08:16:22.203Z,13.98
2019-05-07T08:17:19.072Z,14.16
2019-05-07T08:18:19.277Z,14.36
2019-05-07T08:19:27.445Z,14.31
2019-05-07T08:20:22.683Z,14.33
2019-05-07T08:21:23.361Z,13.87
2019-05-07T08:22:23.215Z,13.93
2019-05-07T08:23:23.238Z,14.08
2019-05-07T08:24:23.281Z,14.26
2019-05-07T08:25:23.004Z,14.22
2019-05-07T08:26:23.138Z,13.79
2019-05-07T08:27:26.663Z,13.4
2019-05-07T08:28:24.572Z,13.71
2019-05-07T08:29:24.937Z,13.7
2019-05-07T08:30:29.632Z,13.98
2019-05-07T08:31:28.095Z,14.23
2019-05-07T08:32:28.192Z,14.16
2019-05-07T08:33:31.991Z,14.55
2019-05-07T08:34:27.727Z,15.17
2019-05-07T08:35:28.173Z,15.78
2019-05-07T08:36:28.587Z,15.65
2019-05-07T08:37:32.400Z,15.78
2019-05-07T08:38:32.811Z,15.8
2019-05-07T08:39:32.944Z,15.29
2019-05-07T08:40:30.073Z,14.82
2019-05-07T08:41:32.218Z,15.41
2019-05-07T08:42:32.632Z,15.5
2019-05-07T08:43:32.510Z,15.67
2019-05-07T08:44:32.795Z,15.59
2019-05-07T08:45:34.460Z,15.92
2019-05-07T08:46:33.139Z,16.16
2019-05-07T08:47:33.477Z,16.39
2019-05-07T08:48:33.601Z,16.61
2019-05-07T08:49:43.972Z,17.01
2019-05-07T08:50:34.396Z,17.39
2019-05-07T08:51:34.680Z,17.75
2019-05-07T08:52:35.104Z,17.38
2019-05-07T08:53:38.573Z,17.2
2019-05-07T08:54:39.275Z,17.13
2019-05-07T08:55:38.006Z,17.02
2019-05-07T08:56:37.997Z,17.2
2019-05-07T08:57:42.022Z,16
2019-05-07T08:58:38.453Z,15.57
2019-05-07T08:59:38.879Z,15.8
2019-05-07T09:00:43.026Z,15.87
2019-05-07T09:01:39.894Z,16.44
2019-05-07T09:02:42.273Z,16.86
2019-05-07T09:03:43.651Z,17.2
2019-05-07T09:04:42.148Z,17.73
2019-05-07T09:05:42.922Z,17.3
2019-05-07T09:06:45.442Z,16.83
2019-05-07T09:07:43.316Z,16.92
2019-05-07T09:08:44.296Z,16.79
2019-05-07T09:09:44.725Z,17.1
2019-05-07T09:10:49.734Z,17.22
2019-05-07T09:11:48.085Z,17.01
2019-05-07T09:12:48.729Z,17.34
2019-05-07T09:13:48.162Z,17.73
2019-05-07T09:14:49.364Z,18.18
2019-05-07T09:15:49.546Z,18.27
2019-05-07T09:16:49.471Z,18.39
2019-05-07T09:17:52.855Z,17.86
2019-05-07T09:18:53.258Z,17.91
2019-05-07T09:19:57.234Z,18.34
2019-05-07T09:20:53.018Z,18.68
2019-05-07T09:21:53.730Z,19.09
2019-05-07T09:22:53.863Z,19.29
2019-05-07T09:23:54.093Z,19.2
2019-05-07T09:24:55.100Z,19.64
2019-05-07T09:25:57.635Z,19.78
2019-05-07T09:26:57.881Z,19.55
2019-05-07T09:27:58.182Z,18.27
2019-05-07T09:28:57.895Z,18.57
2019-05-07T09:29:57.826Z,18.73
2019-05-07T09:31:01.759Z,19.09
2019-05-07T09:31:58.525Z,19.29
2019-05-07T09:32:59.224Z,18.7
2019-05-07T09:33:59.511Z,18.19
2019-05-07T09:35:02.579Z,18.3
2019-05-07T09:36:02.833Z,17.75
2019-05-07T09:37:03.270Z,17.41
2019-05-07T09:38:03.476Z,17.02
2019-05-07T09:39:06.927Z,16.94
2019-05-07T09:40:04.909Z,16.58
2019-05-07T09:41:05.184Z,16.58
2019-05-07T09:42:08.222Z,16.62
2019-05-07T09:43:08.199Z,17.22
2019-05-07T09:44:08.625Z,17.23
2019-05-07T09:45:07.749Z,17.22
2019-05-07T09:46:08.847Z,17.12
2019-05-07T09:47:08.161Z,17.47
2019-05-07T09:48:08.909Z,17.24
2019-05-07T09:49:09.392Z,17.47
2019-05-07T09:50:13.721Z,17.65
2019-05-07T09:51:12.143Z,17.98
2019-05-07T09:52:13.112Z,18.39
2019-05-07T09:53:13.119Z,18.6
2019-05-07T09:54:13.291Z,18.7
2019-05-07T09:55:23.645Z,18.78
2019-05-07T09:56:12.772Z,19.09
2019-05-07T09:57:34.825Z,19.07
2019-05-07T09:58:13.402Z,19.08
2019-05-07T09:59:14.415Z,18.74
2019-05-07T10:00:14.773Z,18.97
2019-05-07T10:01:15.205Z,18.92
2019-05-07T10:02:19.642Z,18.86
2019-05-07T10:03:18.106Z,18.31
2019-05-07T10:04:16.598Z,17.97
2019-05-07T10:05:16.469Z,17.94
2019-05-07T10:06:18.291Z,18.18
2019-05-07T10:07:18.879Z,18.42
2019-05-07T10:08:19.150Z,18.36
2019-05-07T10:09:18.660Z,18.78
2019-05-07T10:10:19.089Z,18.33
2019-05-07T10:11:19.683Z,18
2019-05-07T10:12:22.324Z,18.08
2019-05-07T10:13:22.477Z,18
2019-05-07T10:14:22.672Z,18.02
2019-05-07T10:15:23.112Z,18.23
2019-05-07T10:16:22.838Z,18.68
2019-05-07T10:17:23.544Z,18.96
2019-05-07T10:18:23.799Z,19.05
2019-05-07T10:19:24.924Z,18.49
2019-05-07T10:20:28.435Z,17.88
2019-05-07T10:21:27.591Z,17.98
2019-05-07T10:22:32.076Z,18.41
2019-05-07T10:23:30.510Z,18.79
2019-05-07T10:24:28.063Z,19.15
2019-05-07T10:25:28.531Z,19.26
2019-05-07T10:26:28.660Z,19.19
2019-05-07T10:27:29.305Z,19
2019-05-07T10:28:33.193Z,18.43
2019-05-07T10:29:32.832Z,18.21
2019-05-07T10:30:33.080Z,17.98
2019-05-07T10:31:32.355Z,17.98
2019-05-07T10:32:35.145Z,18.48
2019-05-07T10:33:33.216Z,18.92
2019-05-07T10:34:33.995Z,18.91
2019-05-07T10:35:38.541Z,18.78
2019-05-07T10:36:34.683Z,18.92
2019-05-07T10:37:37.245Z,19.29
2019-05-07T10:38:38.340Z,19.64
2019-05-07T10:39:38.195Z,20.04
2019-05-07T10:40:38.404Z,20.22
2019-05-07T10:41:37.957Z,20.46
2019-05-07T10:42:38.227Z,20.5
2019-05-07T10:43:38.699Z,20.63
2019-05-07T10:44:38.963Z,20.73
2019-05-07T10:45:39.520Z,20.58
2019-05-07T10:46:39.827Z,20.74
2019-05-07T10:47:42.082Z,20.93
2019-05-07T10:48:41.498Z,20.82
2019-05-07T10:49:42.801Z,20.58
2019-05-07T10:50:44.970Z,20.48
2019-05-07T10:51:43.127Z,20.58
2019-05-07T10:52:43.111Z,20.53
2019-05-07T10:53:43.243Z,20.24
2019-05-07T10:54:59.913Z,20.03
2019-05-07T10:55:45.965Z,19.97
2019-05-07T10:56:47.606Z,20.18
2019-05-07T10:57:48.144Z,20.26
2019-05-07T10:58:47.225Z,20.07
2019-05-07T10:59:47.994Z,20.12
2019-05-07T11:00:47.913Z,20.07
2019-05-07T11:01:48.329Z,20.26
2019-05-07T11:02:51.508Z,20.15
2019-05-07T11:03:51.611Z,19.89
2019-05-07T11:04:53.831Z,19.17
2019-05-07T11:05:52.994Z,18.49
2019-05-07T11:06:53.223Z,17.98
2019-05-07T11:07:54.549Z,17.57
2019-05-07T11:08:54.595Z,17.3
2019-05-07T11:09:54.821Z,17.16
2019-05-07T11:10:55.773Z,17.35
2019-05-07T11:11:57.936Z,17.47
2019-05-07T11:12:57.635Z,17.38
2019-05-07T11:14:02.522Z,17.75
2019-05-07T11:14:57.771Z,17.76
2019-05-07T11:15:58.198Z,17.56
2019-05-07T11:16:58.886Z,16.79
2019-05-07T11:17:59.785Z,16.92
2019-05-07T11:19:02.257Z,16.8
2019-05-07T11:20:00.953Z,16.54
2019-05-07T11:21:03.643Z,16.43
2019-05-07T11:22:02.794Z,16.36
2019-05-07T11:23:03.023Z,16.4
2019-05-07T11:24:03.770Z,16.69
2019-05-07T11:25:04.171Z,17.02
2019-05-07T11:26:08.092Z,17.37
2019-05-07T11:27:04.575Z,17.5
2019-05-07T11:28:05.254Z,17.79
2019-05-07T11:29:07.843Z,18.02
2019-05-07T11:30:08.502Z,18.31
2019-05-07T11:31:07.903Z,18.63
2019-05-07T11:32:07.334Z,18.92
2019-05-07T11:33:09.846Z,19.34
2019-05-07T11:34:08.602Z,19.67
2019-05-07T11:35:09.461Z,19.78
2019-05-07T11:36:10.605Z,20.02
2019-05-07T11:37:12.982Z,20
2019-05-07T11:38:25.642Z,19.78
2019-05-07T11:39:12.579Z,19.62
2019-05-07T11:40:13.416Z,18.73
2019-05-07T11:41:13.362Z,18.36
2019-05-07T11:42:13.297Z,17.65
2019-05-07T11:43:13.721Z,17.56
2019-05-07T11:44:14.170Z,17.39
2019-05-07T11:45:14.457Z,17.34
2019-05-07T11:46:14.900Z,17.22
2019-05-07T11:47:17.720Z,16.74
2019-05-07T11:48:18.666Z,16.54
2019-05-07T11:49:19.365Z,16.49
2019-05-07T11:50:23.131Z,16.65
2019-05-07T11:51:23.791Z,16.79
2019-05-07T11:52:23.494Z,17.02
2019-05-07T11:53:19.073Z,17.16
2019-05-07T11:54:20.076Z,17.12
2019-05-07T11:55:22.590Z,16.79
2019-05-07T11:56:22.245Z,16.92
2019-05-07T11:57:22.394Z,16.65
2019-05-07T11:58:22.300Z,16.8
2019-05-07T11:59:22.752Z,16.72
2019-05-07T12:00:23.193Z,16.58
2019-05-07T12:01:24.005Z,16.55
2019-05-07T12:02:26.237Z,16.39
2019-05-07T12:03:29.586Z,16.47
2019-05-07T12:04:28.477Z,16.58
2019-05-07T12:05:29.852Z,16.54
2019-05-07T12:06:27.813Z,16.5
2019-05-07T12:07:27.955Z,16.76
2019-05-07T12:08:52.032Z,16.82
2019-05-07T12:09:30.262Z,16.95
2019-05-07T12:10:30.250Z,16.64
2019-05-07T12:11:32.860Z,16.66
2019-05-07T12:12:33.179Z,16.89
2019-05-07T12:13:32.748Z,17.12
2019-05-07T12:14:37.192Z,17.37
2019-05-07T12:15:33.860Z,17.37
2019-05-07T12:16:34.375Z,17.47
2019-05-07T12:17:35.203Z,17.5
2019-05-07T12:18:37.811Z,17.49
2019-05-07T12:19:43.539Z,17.52
2019-05-07T12:20:38.258Z,17.42
2019-05-07T12:21:37.665Z,17.47
2019-05-07T12:22:38.134Z,17.44
2019-05-07T12:23:42.013Z,16.98
2019-05-07T12:24:38.423Z,16.79
2019-05-07T12:25:43.505Z,16.59
2019-05-07T12:26:41.911Z,16.74
2019-05-07T12:27:40.568Z,16.82
2019-05-07T12:28:42.147Z,16.65
2019-05-07T12:29:42.732Z,16.82
2019-05-07T12:30:43.200Z,16.69
2019-05-07T12:31:42.662Z,16.58
2019-05-07T12:32:43.055Z,16.64
2019-05-07T12:33:43.480Z,16.91
2019-05-07T12:34:43.918Z,17.13
2019-05-07T12:35:44.654Z,17.39
2019-05-07T12:36:47.329Z,17.2
2019-05-07T12:37:49.930Z,16.94
2019-05-07T12:38:49.190Z,16.69
2019-05-07T12:39:48.145Z,16.59
2019-05-07T12:40:48.218Z,16.49
2019-05-07T12:41:48.439Z,16.34
2019-05-07T12:42:52.700Z,16.54
2019-05-07T12:43:52.223Z,16.68
2019-05-07T12:44:53.089Z,16.74
2019-05-07T12:45:52.834Z,16.94
2019-05-07T12:46:53.296Z,16.97
2019-05-07T12:47:53.365Z,17.01
2019-05-07T12:48:54.240Z,16.95
2019-05-07T12:49:53.383Z,17.01
2019-05-07T12:50:52.947Z,17.05
2019-05-07T12:51:53.648Z,17.01
2019-05-07T12:52:54.626Z,17.04
2019-05-07T12:53:54.226Z,16.98
2019-05-07T12:54:54.663Z,16.95
2019-05-07T12:55:57.504Z,17.01
2019-05-07T12:56:57.517Z,17.1
2019-05-07T12:57:57.409Z,17.22
2019-05-07T12:58:57.611Z,17.23
2019-05-07T12:59:58.720Z,16.91
2019-05-07T13:00:58.439Z,16.62
2019-05-07T13:01:58.601Z,16.72
2019-05-07T13:02:59.647Z,16.65
2019-05-07T13:04:02.917Z,16.68
2019-05-07T13:05:04.789Z,16.68
2019-05-07T13:06:02.941Z,16.69
2019-05-07T13:07:03.224Z,16.25
2019-05-07T13:08:03.521Z,15.98
2019-05-07T13:09:04.279Z,16.09
2019-05-07T13:10:09.192Z,15.8
2019-05-07T13:11:04.756Z,15.72
2019-05-07T13:12:07.529Z,15.73
2019-05-07T13:13:07.878Z,15.87
2019-05-07T13:14:07.612Z,15.96
2019-05-07T13:15:27.752Z,15.99
2019-05-07T13:16:19.322Z,16.03
2019-05-07T13:17:17.603Z,16.16
2019-05-07T13:18:18.208Z,16.49